マガダン の空港の天気 - METARとTAF

マガダン・ソコル空港 ( UHMM / GDX ) - ロシア マガダン
飛行場実況気象(Metar)
観測時間05/29 10:30 MAGT (05/28 23:30 UTC)
風向・風速西 3m/s
視程10km以上
天気現象
なし
気温15℃
湿度41%
気圧1017hPa
METARUHMM 282330Z 26003MPS 220V300 9999 NSC 15/02 Q1017 R10/70D NOSIG RMK QFE748 R28/29003MPS
過去の天気等 Google飛行場航空写真 Wunderground天気予報

過去48時間のMETAR

飛行場予報(TAF)
発表時間: 5/29 09:43 MAGT (5/28 22:43 UTC)
予報対象時間: 29日11時 MAGT ~ 30日17時 MAGT
風向・風速西 3m/s 瞬間風速 9m/s
視程10km以上
全天の4割程度の積乱雲 雲底高度 1220m
TAF UHMM 282243Z 2900/3006 27003G09MPS 9999 SCT040CB